createdAt,value
2019-05-23T00:01:19.684Z,12.60
2019-05-23T00:03:49.758Z,15.63
2019-05-23T00:06:22.440Z,15.60
2019-05-23T00:08:52.529Z,13.35
2019-05-23T00:11:41.002Z,17.10
2019-05-23T00:14:28.897Z,18.67
2019-05-23T00:16:57.892Z,14.28
2019-05-23T00:19:26.770Z,17.35
2019-05-23T00:21:56.028Z,16.23
2019-05-23T00:24:25.189Z,14.30
2019-05-23T00:26:54.430Z,14.75
2019-05-23T00:29:22.853Z,13.00
2019-05-23T00:31:55.986Z,12.90
2019-05-23T00:34:25.864Z,12.78
2019-05-23T00:36:54.767Z,17.52
2019-05-23T00:39:24.540Z,15.13
2019-05-23T00:41:54.316Z,16.42
2019-05-23T00:44:23.046Z,13.98
2019-05-23T00:46:52.490Z,17.20
2019-05-23T00:49:22.027Z,15.05
2019-05-23T00:51:50.551Z,14.05
2019-05-23T00:54:19.737Z,14.05
2019-05-23T00:56:48.164Z,13.62
2019-05-23T00:59:26.443Z,30.00
2019-05-23T01:01:47.644Z,15.80
2019-05-23T01:04:16.775Z,13.88
2019-05-23T01:06:45.237Z,13.10
2019-05-23T01:09:14.867Z,13.18
2019-05-23T01:11:44.428Z,10.93
2019-05-23T01:14:12.943Z,12.35
2019-05-23T01:16:42.157Z,12.85
2019-05-23T01:19:13.271Z,13.00
2019-05-23T01:21:58.975Z,12.88
2019-05-23T01:24:29.740Z,10.72
2019-05-23T01:26:58.678Z,11.73
2019-05-23T01:29:37.452Z,13.13
2019-05-23T01:32:07.280Z,14.00
2019-05-23T01:34:36.870Z,13.75
2019-05-23T01:37:06.132Z,12.88
2019-05-23T01:39:35.454Z,13.10
2019-05-23T01:42:04.455Z,14.25
2019-05-23T01:44:33.960Z,11.03
2019-05-23T01:47:03.773Z,27.65
2019-05-23T01:49:33.036Z,14.80
2019-05-23T01:52:02.044Z,13.72
2019-05-23T01:54:30.569Z,13.15
2019-05-23T01:57:00.109Z,14.47
2019-05-23T01:59:28.842Z,13.88
2019-05-23T02:01:57.346Z,18.65
2019-05-23T02:04:25.924Z,18.50
2019-05-23T02:06:55.163Z,16.37
2019-05-23T02:09:23.845Z,20.00
2019-05-23T02:11:52.798Z,17.85
2019-05-23T02:14:21.281Z,19.12
2019-05-23T02:16:50.578Z,20.37
2019-05-23T02:19:20.144Z,17.35
2019-05-23T02:21:49.368Z,21.85
2019-05-23T02:24:18.703Z,16.70
2019-05-23T02:26:48.027Z,15.48
2019-05-23T02:29:17.269Z,17.35
2019-05-23T02:31:46.016Z,14.40
2019-05-23T02:34:15.285Z,16.17
2019-05-23T02:36:44.529Z,18.10
2019-05-23T02:39:30.388Z,16.65
2019-05-23T02:42:00.889Z,17.02
2019-05-23T02:44:31.012Z,22.93
2019-05-23T02:47:04.615Z,13.70
2019-05-23T02:49:34.483Z,15.55
2019-05-23T02:52:19.582Z,11.80
2019-05-23T02:54:47.983Z,14.15
2019-05-23T02:57:19.178Z,13.85
2019-05-23T02:59:52.148Z,11.20
2019-05-23T03:02:44.833Z,13.68
2019-05-23T03:05:15.314Z,13.60
2019-05-23T03:07:45.129Z,16.62
2019-05-23T03:10:13.976Z,10.45
2019-05-23T03:12:44.092Z,14.18
2019-05-23T03:15:14.537Z,11.93
2019-05-23T03:17:45.199Z,15.88
2019-05-23T03:20:14.059Z,11.93
2019-05-23T03:22:58.589Z,16.07
2019-05-23T03:25:36.685Z,15.58
2019-05-23T03:28:08.069Z,10.60
2019-05-23T03:30:38.413Z,12.23
2019-05-23T03:33:13.026Z,17.42
2019-05-23T03:35:51.985Z,11.65
2019-05-23T03:38:20.825Z,12.30
2019-05-23T03:40:49.630Z,12.70
2019-05-23T03:43:18.092Z,14.13
2019-05-23T03:45:57.525Z,16.87
2019-05-23T03:48:27.848Z,12.65
2019-05-23T03:50:58.211Z,13.85
2019-05-23T03:53:28.554Z,11.85
2019-05-23T03:55:58.695Z,14.87
2019-05-23T03:58:29.802Z,13.72
2019-05-23T04:01:00.063Z,15.30
2019-05-23T04:03:29.402Z,14.60
2019-05-23T04:05:58.784Z,15.13
2019-05-23T04:08:28.201Z,12.75
2019-05-23T04:10:57.540Z,16.00
2019-05-23T04:13:26.254Z,13.38
2019-05-23T04:15:54.839Z,13.43
2019-05-23T04:18:23.713Z,19.00
2019-05-23T04:20:52.399Z,15.25
2019-05-23T04:23:20.819Z,12.88
2019-05-23T04:25:49.842Z,17.52
2019-05-23T04:28:18.695Z,13.78
2019-05-23T04:30:47.581Z,15.15
2019-05-23T04:33:16.006Z,16.17
2019-05-23T04:35:45.446Z,14.05
2019-05-23T04:38:15.066Z,12.53
2019-05-23T04:40:43.539Z,15.93
2019-05-23T04:43:12.095Z,15.93
2019-05-23T04:45:41.858Z,16.17
2019-05-23T04:48:10.419Z,15.45
2019-05-23T04:50:39.395Z,17.12
2019-05-23T04:53:08.828Z,16.37
2019-05-23T04:55:38.078Z,13.72
2019-05-23T04:58:06.651Z,16.97
2019-05-23T05:00:35.790Z,14.80
2019-05-23T05:03:05.943Z,18.67
2019-05-23T05:05:35.398Z,23.05
2019-05-23T05:08:04.184Z,27.90
2019-05-23T05:10:32.777Z,20.82
2019-05-23T05:13:02.417Z,25.92
2019-05-23T05:15:30.925Z,19.02
2019-05-23T05:17:59.934Z,18.20
2019-05-23T05:20:28.496Z,18.37
2019-05-23T05:22:57.260Z,17.45
2019-05-23T05:25:26.288Z,16.25
2019-05-23T05:27:54.937Z,16.23
2019-05-23T05:30:23.794Z,18.20
2019-05-23T05:32:52.523Z,15.50
2019-05-23T05:35:21.032Z,14.73
2019-05-23T05:37:49.730Z,16.87
2019-05-23T05:40:18.679Z,21.67
2019-05-23T05:42:55.735Z,15.53
2019-05-23T05:45:24.381Z,19.80
2019-05-23T05:47:53.277Z,16.27
2019-05-23T05:50:22.370Z,16.90
2019-05-23T05:52:50.867Z,19.77
2019-05-23T05:55:19.276Z,22.17
2019-05-23T05:57:47.703Z,15.33
2019-05-23T06:00:19.227Z,21.40
2019-05-23T06:03:02.665Z,19.27
2019-05-23T06:05:35.806Z,22.40
2019-05-23T06:08:06.123Z,23.70
2019-05-23T06:10:35.054Z,34.20
2019-05-23T06:13:03.979Z,21.73
2019-05-23T06:15:34.260Z,21.10
2019-05-23T06:18:03.357Z,17.40
2019-05-23T06:20:32.996Z,22.73
2019-05-23T06:23:01.413Z,20.80
2019-05-23T06:25:29.920Z,22.27
2019-05-23T06:27:59.596Z,22.47
2019-05-23T06:30:32.612Z,24.00
2019-05-23T06:32:59.497Z,18.83
2019-05-23T06:35:28.980Z,24.10
2019-05-23T06:37:57.572Z,22.83
2019-05-23T06:40:26.226Z,18.90
2019-05-23T06:42:54.652Z,20.53
2019-05-23T06:45:23.242Z,19.23
2019-05-23T06:47:51.734Z,22.60
2019-05-23T06:50:21.643Z,22.57
2019-05-23T06:52:50.373Z,17.87
2019-05-23T06:55:18.794Z,16.97
2019-05-23T06:57:47.758Z,19.77
2019-05-23T07:00:18.296Z,21.07
2019-05-23T07:02:48.254Z,18.53
2019-05-23T07:05:18.900Z,15.50
2019-05-23T07:07:47.494Z,19.03
2019-05-23T07:10:16.553Z,18.87
2019-05-23T07:12:45.031Z,22.33
2019-05-23T07:15:13.745Z,20.87
2019-05-23T07:17:42.214Z,17.77
2019-05-23T07:20:12.358Z,16.07
2019-05-23T07:22:41.006Z,16.80
2019-05-23T07:25:09.664Z,19.70
2019-05-23T07:27:38.609Z,19.63
2019-05-23T07:30:12.722Z,16.80
2019-05-23T07:32:41.167Z,14.93
2019-05-23T07:35:10.105Z,16.17
2019-05-23T07:37:38.604Z,18.47
2019-05-23T07:40:07.484Z,12.97
2019-05-23T07:42:35.958Z,17.67
2019-05-23T07:45:07.389Z,13.50
2019-05-23T07:47:39.890Z,16.43
2019-05-23T07:50:09.778Z,14.40
2019-05-23T07:52:39.330Z,12.57
2019-05-23T07:55:25.742Z,13.37
2019-05-23T07:57:54.903Z,11.70
2019-05-23T08:00:28.526Z,13.50
2019-05-23T08:02:59.834Z,15.63
2019-05-23T08:05:28.940Z,11.07
2019-05-23T08:07:58.649Z,13.37
2019-05-23T08:10:33.588Z,15.80
2019-05-23T08:12:58.003Z,12.00
2019-05-23T08:15:26.412Z,12.57
2019-05-23T08:17:54.968Z,12.30
2019-05-23T08:20:23.960Z,11.70
2019-05-23T08:22:52.468Z,14.80
2019-05-23T08:25:20.968Z,12.93
2019-05-23T08:27:49.861Z,12.13
2019-05-23T08:30:18.427Z,12.83
2019-05-23T08:32:46.912Z,12.57
2019-05-23T08:35:17.837Z,12.40
2019-05-23T08:37:46.250Z,13.37
2019-05-23T08:40:15.709Z,11.30
2019-05-23T08:42:44.844Z,10.30
2019-05-23T08:45:14.195Z,8.53
2019-05-23T08:47:42.594Z,10.80
2019-05-23T08:50:11.847Z,10.77
2019-05-23T08:52:40.377Z,12.47
2019-05-23T08:55:25.852Z,10.20
2019-05-23T08:57:58.023Z,9.00
2019-05-23T09:00:28.399Z,9.83
2019-05-23T09:02:59.947Z,8.37
2019-05-23T09:05:30.760Z,9.33
2019-05-23T09:07:59.309Z,10.03
2019-05-23T09:10:34.892Z,9.90
2019-05-23T09:13:04.571Z,9.67
2019-05-23T09:15:32.991Z,9.37
2019-05-23T09:18:01.847Z,8.13
2019-05-23T09:20:31.193Z,13.80
2019-05-23T09:22:59.585Z,7.97
2019-05-23T09:25:28.006Z,8.57
2019-05-23T09:27:56.978Z,21.30
2019-05-23T09:30:26.140Z,11.80
2019-05-23T09:32:55.217Z,21.73
2019-05-23T09:35:23.697Z,19.90
2019-05-23T09:37:52.144Z,55.13
2019-05-23T09:40:21.509Z,8.20
2019-05-23T09:42:49.985Z,9.77
2019-05-23T09:45:18.401Z,7.83
2019-05-23T09:47:50.893Z,12.23
2019-05-23T09:50:18.581Z,7.40
2019-05-23T09:52:47.042Z,8.67
2019-05-23T09:55:16.056Z,7.70
2019-05-23T09:57:44.485Z,11.40
2019-05-23T10:00:15.089Z,9.17
2019-05-23T10:02:43.564Z,8.93
2019-05-23T10:05:13.028Z,10.63
2019-05-23T10:07:41.432Z,11.10
2019-05-23T10:10:11.419Z,16.07
2019-05-23T10:12:39.886Z,8.63
2019-05-23T10:15:15.097Z,10.77
2019-05-23T10:17:43.554Z,13.63
2019-05-23T10:20:12.849Z,8.77
2019-05-23T10:22:41.256Z,7.93
2019-05-23T10:25:09.913Z,7.20
2019-05-23T10:27:38.636Z,8.77
2019-05-23T10:30:10.362Z,7.80
2019-05-23T10:32:38.767Z,6.80
2019-05-23T10:35:08.217Z,8.43
2019-05-23T10:37:37.200Z,8.20
2019-05-23T10:40:06.412Z,11.87
2019-05-23T10:42:35.113Z,11.60
2019-05-23T10:45:05.711Z,9.33
2019-05-23T10:47:34.100Z,9.70
2019-05-23T10:50:07.900Z,9.30
2019-05-23T10:52:34.024Z,8.40
2019-05-23T10:55:02.908Z,9.73
2019-05-23T10:57:31.453Z,10.60
2019-05-23T10:59:59.891Z,9.03
2019-05-23T11:02:28.716Z,8.97
2019-05-23T11:04:57.433Z,8.80
2019-05-23T11:07:26.650Z,9.90
2019-05-23T11:09:55.586Z,8.10
2019-05-23T11:12:24.354Z,8.60
2019-05-23T11:14:53.320Z,10.30
2019-05-23T11:17:22.174Z,8.37
2019-05-23T11:19:50.981Z,9.20
2019-05-23T11:22:20.263Z,9.10
2019-05-23T11:24:48.668Z,7.63
2019-05-23T11:27:18.232Z,9.70
2019-05-23T11:29:46.666Z,10.10
2019-05-23T11:32:19.830Z,11.00
2019-05-23T11:34:46.341Z,8.03
2019-05-23T11:37:14.849Z,8.30
2019-05-23T11:39:49.688Z,8.53
2019-05-23T11:42:13.525Z,16.43
2019-05-23T11:44:41.973Z,7.93
2019-05-23T11:47:10.626Z,9.30
2019-05-23T11:49:39.581Z,7.87
2019-05-23T11:52:08.816Z,10.27
2019-05-23T11:54:38.332Z,8.30
2019-05-23T11:57:08.873Z,9.37
2019-05-23T11:59:37.441Z,7.50
2019-05-23T12:02:13.560Z,7.00
2019-05-23T12:04:42.359Z,9.73
2019-05-23T12:07:12.485Z,7.00
2019-05-23T12:09:40.917Z,6.23
2019-05-23T12:12:09.729Z,6.83
2019-05-23T12:14:39.851Z,8.90
2019-05-23T12:17:08.748Z,7.53
2019-05-23T12:19:37.819Z,5.50
2019-05-23T12:22:06.332Z,10.13
2019-05-23T12:24:35.777Z,6.83
2019-05-23T12:27:04.641Z,7.53
2019-05-23T12:29:33.394Z,6.93
2019-05-23T12:32:01.952Z,13.17
2019-05-23T12:34:30.765Z,6.20
2019-05-23T12:37:16.858Z,6.70
2019-05-23T12:39:29.468Z,5.93
2019-05-23T12:41:58.037Z,5.03
2019-05-23T12:44:26.544Z,5.47
2019-05-23T12:46:55.435Z,7.20
2019-05-23T12:49:28.318Z,6.40
2019-05-23T12:51:58.242Z,7.30
2019-05-23T12:54:26.677Z,5.80
2019-05-23T12:56:56.028Z,5.17
2019-05-23T12:59:25.393Z,6.30
2019-05-23T13:01:55.209Z,6.73
2019-05-23T13:04:24.531Z,7.07
2019-05-23T13:06:53.514Z,4.90
2019-05-23T13:09:21.998Z,4.60
2019-05-23T13:11:50.661Z,5.03
2019-05-23T13:14:19.601Z,5.53
2019-05-23T13:16:48.103Z,6.23
2019-05-23T13:19:16.881Z,5.30
2019-05-23T13:21:45.384Z,4.10
2019-05-23T13:24:13.888Z,6.40
2019-05-23T13:26:42.483Z,8.43
2019-05-23T13:29:10.973Z,6.20
2019-05-23T13:31:39.456Z,7.03
2019-05-23T13:34:08.008Z,5.53
2019-05-23T13:36:36.469Z,7.37
2019-05-23T13:39:08.202Z,6.50
2019-05-23T13:41:36.702Z,5.97
2019-05-23T13:44:05.656Z,8.57
2019-05-23T13:46:34.272Z,6.00
2019-05-23T13:49:02.688Z,5.13
2019-05-23T13:51:31.165Z,4.60
2019-05-23T13:53:59.883Z,5.37
2019-05-23T13:56:28.361Z,5.03
2019-05-23T13:58:57.127Z,4.83
2019-05-23T14:01:25.696Z,5.50
2019-05-23T14:03:54.503Z,4.47
2019-05-23T14:06:23.056Z,4.83
2019-05-23T14:08:51.642Z,4.83
2019-05-23T14:11:20.275Z,5.90
2019-05-23T14:13:59.168Z,4.37
2019-05-23T14:16:19.654Z,5.00
2019-05-23T14:18:48.504Z,6.50
2019-05-23T14:21:17.634Z,5.07
2019-05-23T14:23:46.078Z,5.13
2019-05-23T14:26:16.297Z,4.90
2019-05-23T14:28:44.715Z,5.23
2019-05-23T14:31:15.011Z,4.87
2019-05-23T14:34:00.552Z,3.70
2019-05-23T14:36:32.275Z,5.20
2019-05-23T14:39:02.469Z,5.20
2019-05-23T14:41:44.834Z,4.57
2019-05-23T14:44:03.022Z,4.00
2019-05-23T14:46:33.330Z,4.73
2019-05-23T14:49:03.725Z,6.60
2019-05-23T14:51:43.237Z,4.23
2019-05-23T14:54:14.842Z,4.20
2019-05-23T14:56:44.062Z,4.00
2019-05-23T14:59:12.622Z,4.50
2019-05-23T15:01:41.102Z,4.90
2019-05-23T15:04:10.365Z,4.97
2019-05-23T15:06:39.133Z,4.13
2019-05-23T15:09:09.104Z,4.57
2019-05-23T15:11:38.329Z,4.80
2019-05-23T15:14:06.891Z,5.30
2019-05-23T15:16:35.630Z,4.70
2019-05-23T15:19:04.748Z,4.33
2019-05-23T15:21:33.262Z,4.67
2019-05-23T15:24:01.820Z,3.27
2019-05-23T15:26:30.536Z,6.03
2019-05-23T15:28:59.323Z,3.87
2019-05-23T15:31:28.156Z,4.03
2019-05-23T15:33:56.760Z,4.27
2019-05-23T15:36:25.309Z,5.13
2019-05-23T15:39:08.180Z,5.87
2019-05-23T15:41:24.022Z,5.43
2019-05-23T15:43:52.446Z,3.97
2019-05-23T15:46:20.943Z,5.40
2019-05-23T15:48:49.422Z,4.63
2019-05-23T15:51:19.817Z,4.33
2019-05-23T15:53:49.892Z,6.00
2019-05-23T15:56:29.625Z,4.20
2019-05-23T15:59:18.029Z,4.50
2019-05-23T16:01:57.338Z,4.40
2019-05-23T16:04:25.807Z,3.97
2019-05-23T16:06:54.597Z,4.00
2019-05-23T16:09:30.215Z,4.27
2019-05-23T16:11:53.519Z,3.83
2019-05-23T16:14:23.586Z,3.50
2019-05-23T16:16:56.207Z,4.20
2019-05-23T16:19:23.121Z,3.70
2019-05-23T16:21:51.682Z,4.60
2019-05-23T16:24:20.445Z,3.63
2019-05-23T16:26:48.932Z,3.60
2019-05-23T16:29:17.911Z,4.87
2019-05-23T16:31:46.477Z,4.03
2019-05-23T16:34:14.942Z,4.07
2019-05-23T16:36:43.870Z,4.17
2019-05-23T16:39:12.362Z,4.93
2019-05-23T16:41:40.813Z,4.17
2019-05-23T16:44:09.213Z,3.77
2019-05-23T16:46:37.927Z,3.40
2019-05-23T16:49:06.499Z,4.07
2019-05-23T16:51:34.993Z,3.37
2019-05-23T16:54:03.523Z,3.77
2019-05-23T16:56:42.867Z,6.20
2019-05-23T16:59:12.929Z,2.97
2019-05-23T17:01:57.071Z,3.90
2019-05-23T17:04:35.678Z,4.37
2019-05-23T17:07:24.968Z,3.50
2019-05-23T17:10:08.835Z,4.80
2019-05-23T17:12:45.230Z,3.40
2019-05-23T17:15:31.205Z,5.53
2019-05-23T17:18:03.334Z,3.60
2019-05-23T17:20:45.165Z,3.70
2019-05-23T17:23:15.421Z,3.00
2019-05-23T17:25:48.349Z,4.10
2019-05-23T17:28:21.490Z,3.80
2019-05-23T17:30:51.612Z,3.50
2019-05-23T17:33:20.051Z,3.77
2019-05-23T17:35:48.867Z,4.37
2019-05-23T17:38:17.388Z,3.50
2019-05-23T17:40:45.992Z,4.77
2019-05-23T17:43:14.723Z,3.73
2019-05-23T17:45:43.694Z,3.70
2019-05-23T17:48:12.546Z,3.13
2019-05-23T17:50:41.125Z,2.70
2019-05-23T17:53:09.613Z,3.00
2019-05-23T17:55:39.691Z,2.30
2019-05-23T17:58:08.191Z,2.67
2019-05-23T18:00:38.001Z,4.03
2019-05-23T18:03:07.100Z,3.37
2019-05-23T18:05:36.138Z,3.23
2019-05-23T18:08:05.646Z,4.70
2019-05-23T18:10:44.659Z,3.60
2019-05-23T18:13:05.649Z,2.90
2019-05-23T18:15:34.181Z,4.43
2019-05-23T18:18:02.780Z,3.47
2019-05-23T18:20:31.569Z,3.10
2019-05-23T18:23:00.519Z,2.50
2019-05-23T18:25:29.864Z,3.80
2019-05-23T18:27:58.827Z,2.77
2019-05-23T18:30:45.360Z,7.00
2019-05-23T18:33:15.783Z,6.00
2019-05-23T18:35:44.257Z,3.03
2019-05-23T18:38:13.168Z,3.57
2019-05-23T18:40:41.929Z,2.70
2019-05-23T18:43:11.145Z,3.93
2019-05-23T18:45:40.799Z,3.37
2019-05-23T18:48:09.764Z,6.10
2019-05-23T18:50:38.557Z,3.33
2019-05-23T18:53:07.608Z,4.53
2019-05-23T18:55:36.533Z,2.43
2019-05-23T18:58:05.302Z,2.80
2019-05-23T19:00:56.654Z,3.40
2019-05-23T19:03:25.218Z,4.17
2019-05-23T19:05:53.786Z,2.60
2019-05-23T19:08:23.233Z,3.10
2019-05-23T19:10:51.866Z,3.90
2019-05-23T19:13:20.359Z,3.20
2019-05-23T19:15:49.237Z,3.40
2019-05-23T19:18:17.737Z,4.13
2019-05-23T19:20:46.187Z,3.27
2019-05-23T19:23:14.734Z,6.20
2019-05-23T19:25:44.586Z,3.40
2019-05-23T19:28:13.532Z,3.23
2019-05-23T19:30:42.281Z,4.00
2019-05-23T19:33:10.982Z,3.60
2019-05-23T19:35:40.029Z,4.90
2019-05-23T19:38:09.371Z,4.57
2019-05-23T19:40:38.050Z,4.37
2019-05-23T19:43:06.747Z,5.20
2019-05-23T19:45:36.061Z,5.23
2019-05-23T19:48:04.810Z,4.40
2019-05-23T19:50:33.938Z,6.53
2019-05-23T19:53:02.480Z,11.03
2019-05-23T19:55:31.723Z,7.40
2019-05-23T19:58:00.782Z,14.23
2019-05-23T20:00:31.203Z,8.67
2019-05-23T20:03:03.528Z,5.00
2019-05-23T20:05:34.364Z,6.40
2019-05-23T20:08:02.952Z,4.97
2019-05-23T20:10:32.097Z,6.57
2019-05-23T20:13:00.528Z,7.27
2019-05-23T20:15:29.674Z,14.67
2019-05-23T20:17:58.454Z,16.13
2019-05-23T20:20:27.659Z,7.97
2019-05-23T20:22:56.072Z,6.50
2019-05-23T20:25:24.744Z,6.13
2019-05-23T20:27:53.745Z,7.33
2019-05-23T20:30:46.198Z,17.07
2019-05-23T20:33:15.557Z,11.90
2019-05-23T20:35:44.093Z,9.67
2019-05-23T20:38:12.684Z,9.60
2019-05-23T20:40:41.204Z,11.53
2019-05-23T20:43:09.864Z,13.43
2019-05-23T20:45:38.597Z,8.43
2019-05-23T20:48:07.395Z,8.40
2019-05-23T20:50:36.064Z,12.97
2019-05-23T20:53:04.818Z,11.17
2019-05-23T20:55:33.607Z,11.20
2019-05-23T20:58:02.380Z,8.77
2019-05-23T21:00:35.081Z,7.30
2019-05-23T21:03:04.612Z,6.20
2019-05-23T21:05:35.890Z,7.70
2019-05-23T21:08:04.341Z,8.93
2019-05-23T21:10:45.408Z,9.23
2019-05-23T21:13:13.956Z,8.43
2019-05-23T21:15:42.399Z,14.60
2019-05-23T21:18:10.936Z,10.43
2019-05-23T21:20:39.542Z,8.40
2019-05-23T21:23:07.972Z,6.83
2019-05-23T21:25:38.041Z,6.10
2019-05-23T21:28:06.491Z,6.40
2019-05-23T21:30:34.998Z,12.80
2019-05-23T21:33:03.693Z,11.50
2019-05-23T21:35:33.357Z,12.43
2019-05-23T21:38:01.819Z,7.47
2019-05-23T21:40:35.938Z,8.07
2019-05-23T21:43:05.192Z,7.83
2019-05-23T21:45:34.443Z,7.70
2019-05-23T21:48:03.077Z,6.77
2019-05-23T21:50:31.777Z,7.47
2019-05-23T21:53:00.344Z,7.63
2019-05-23T21:55:42.656Z,8.83
2019-05-23T21:58:12.511Z,6.47
2019-05-23T22:01:06.764Z,6.20
2019-05-23T22:03:40.956Z,7.13
2019-05-23T22:06:13.648Z,7.60
2019-05-23T22:08:42.636Z,6.07
2019-05-23T22:11:11.120Z,7.63
2019-05-23T22:13:39.654Z,7.20
2019-05-23T22:16:09.685Z,8.93
2019-05-23T22:18:38.504Z,6.13
2019-05-23T22:21:06.994Z,6.30
2019-05-23T22:23:35.841Z,7.00
2019-05-23T22:26:04.490Z,6.97
2019-05-23T22:28:33.051Z,10.03
2019-05-23T22:31:01.703Z,6.93
2019-05-23T22:33:31.836Z,7.07
2019-05-23T22:36:03.054Z,5.33
2019-05-23T22:38:31.585Z,6.57
2019-05-23T22:41:00.164Z,6.87
2019-05-23T22:43:28.904Z,6.10
2019-05-23T22:45:57.345Z,7.33
2019-05-23T22:48:26.022Z,8.90
2019-05-23T22:50:54.466Z,7.27
2019-05-23T22:53:22.882Z,6.50
2019-05-23T22:55:51.376Z,8.00
2019-05-23T22:58:19.841Z,6.57
2019-05-23T23:00:49.437Z,7.70
2019-05-23T23:03:18.426Z,6.77
2019-05-23T23:05:46.972Z,7.90
2019-05-23T23:08:16.612Z,6.70
2019-05-23T23:10:45.114Z,10.13
2019-05-23T23:13:14.171Z,8.80
2019-05-23T23:15:42.946Z,5.93
2019-05-23T23:18:11.421Z,6.57
2019-05-23T23:20:39.845Z,6.30
2019-05-23T23:23:08.297Z,6.30
2019-05-23T23:25:36.706Z,6.13
2019-05-23T23:28:05.194Z,6.70
2019-05-23T23:30:44.115Z,6.20
2019-05-23T23:33:12.762Z,8.33
2019-05-23T23:35:41.502Z,6.63
2019-05-23T23:38:10.463Z,6.63
2019-05-23T23:40:38.869Z,6.30
2019-05-23T23:43:07.298Z,7.10
2019-05-23T23:45:57.124Z,7.07
2019-05-23T23:48:43.328Z,7.77
2019-05-23T23:51:29.556Z,7.00
2019-05-23T23:54:15.987Z,8.00
2019-05-23T23:57:02.838Z,6.80
2019-05-23T23:59:30.658Z,6.67
